Time;durP1;ratioP1;P1;durP2;ratioP2;P2;SDS_P1;SDS_P2;PMS_P1;PMS_P2;Temp;Humidity;BMP_temperature;BMP_pressure;BME280_temperature;BME280_humidity;BME280_pressure;Samples;Min_cycle;Max_cycle;Signal;HPM_P1;HPM_P2
2022/07/08 00:00:13;;;;;;;3.05;0.70;;;15.50;99.90;;;;;;5029170;28;20044;-72
2022/07/08 00:02:39;;;;;;;4.43;0.65;;;15.50;99.90;;;;;;5027546;28;20040;-71
2022/07/08 00:05:04;;;;;;;5.50;0.50;;;15.40;99.90;;;;;;5033091;28;20029;-72
2022/07/08 00:07:30;;;;;;;1.75;0.40;;;15.40;99.90;;;;;;5034824;28;20120;-73
2022/07/08 00:09:56;;;;;;;6.70;0.50;;;15.30;99.90;;;;;;5036328;28;20033;-72
2022/07/08 00:12:21;;;;;;;6.18;1.33;;;15.30;99.90;;;;;;5028706;28;20045;-73
2022/07/08 00:14:47;;;;;;;3.13;0.38;;;15.30;99.90;;;;;;5028719;28;20045;-71
2022/07/08 00:17:12;;;;;;;6.80;1.27;;;15.20;99.90;;;;;;5028589;28;20053;-73
2022/07/08 00:19:38;;;;;;;6.78;1.10;;;15.20;99.90;;;;;;5034427;28;20021;-72
2022/07/08 00:22:03;;;;;;;13.57;0.88;;;15.10;99.90;;;;;;5033181;28;20389;-72
2022/07/08 00:24:29;;;;;;;2.33;0.35;;;15.00;99.90;;;;;;5031789;28;20512;-72
2022/07/08 00:26:55;;;;;;;8.98;1.08;;;15.00;99.90;;;;;;5027055;28;20031;-71
2022/07/08 00:29:20;;;;;;;2.10;0.43;;;14.90;99.90;;;;;;5026824;28;20043;-73
2022/07/08 00:31:46;;;;;;;4.07;0.52;;;14.90;99.90;;;;;;5026459;28;20041;-72
2022/07/08 00:34:11;;;;;;;7.88;0.82;;;14.80;99.90;;;;;;5025754;28;20035;-72
2022/07/08 00:36:37;;;;;;;3.85;0.63;;;14.80;99.90;;;;;;5026695;28;20095;-73
2022/07/08 00:39:05;;;;;;;8.65;1.00;;;14.70;99.90;;;;;;5024872;28;20029;-71
2022/07/08 00:41:31;;;;;;;10.20;0.77;;;14.60;99.90;;;;;;5029740;28;20096;-73
2022/07/08 00:43:57;;;;;;;5.85;0.65;;;14.60;99.90;;;;;;5027836;28;20064;-72
2022/07/08 00:46:22;;;;;;;3.95;0.68;;;14.50;99.90;;;;;;5027588;28;20091;-72
2022/07/08 00:48:48;;;;;;;4.53;0.80;;;14.50;99.90;;;;;;5027180;28;20567;-72
2022/07/08 00:51:16;;;;;;;3.75;1.10;;;14.50;99.90;;;;;;5035201;28;20040;-72
2022/07/08 00:53:51;;;;;;;6.30;0.73;;;14.40;99.90;;;;;;5035771;28;20044;-72
2022/07/08 00:56:21;;;;;;;3.17;0.63;;;14.40;99.90;;;;;;5036715;28;20064;-72
2022/07/08 00:58:48;;;;;;;2.95;0.90;;;14.30;99.90;;;;;;5028721;28;20667;-72
2022/07/08 01:01:15;;;;;;;4.47;0.55;;;14.30;99.90;;;;;;5030018;28;20038;-73
2022/07/08 01:03:43;;;;;;;7.63;1.10;;;14.20;99.90;;;;;;5028842;28;20140;-70
2022/07/08 01:06:08;;;;;;;3.45;0.57;;;14.20;99.90;;;;;;5019806;28;20076;-72
2022/07/08 01:08:34;;;;;;;8.23;1.20;;;14.20;99.90;;;;;;5030182;28;20037;-72
2022/07/08 01:11:00;;;;;;;2.30;1.48;;;14.10;99.90;;;;;;5029996;28;20175;-72
2022/07/08 01:13:26;;;;;;;2.58;0.95;;;14.10;99.90;;;;;;5031071;28;20651;-72
2022/07/08 01:15:51;;;;;;;4.00;1.48;;;14.00;99.90;;;;;;5031338;28;20046;-72
2022/07/08 01:18:26;;;;;;;5.55;0.75;;;14.00;99.90;;;;;;5031479;28;20033;-72
2022/07/08 01:20:52;;;;;;;7.25;0.90;;;14.00;99.90;;;;;;5027337;28;20041;-71
2022/07/08 01:23:17;;;;;;;4.28;1.05;;;14.00;99.90;;;;;;5030067;28;20559;-72
2022/07/08 01:25:44;;;;;;;5.45;1.23;;;14.00;99.90;;;;;;5033748;28;20041;-72
2022/07/08 01:28:10;;;;;;;4.55;0.68;;;14.00;99.90;;;;;;5034318;28;20041;-72
2022/07/08 01:30:35;;;;;;;2.83;0.75;;;13.90;99.90;;;;;;5034822;28;20038;-71
2022/07/08 01:33:01;;;;;;;3.03;0.57;;;13.90;99.90;;;;;;5033923;28;20126;-72
2022/07/08 01:35:26;;;;;;;4.10;0.57;;;13.90;99.90;;;;;;5039506;28;20509;-71
2022/07/08 01:37:52;;;;;;;4.35;1.02;;;13.80;99.90;;;;;;5042526;28;20043;-72
2022/07/08 01:40:18;;;;;;;8.40;1.33;;;13.80;99.90;;;;;;5038552;28;20087;-70
2022/07/08 01:42:43;;;;;;;2.75;0.73;;;13.80;99.90;;;;;;5030407;28;20098;-72
2022/07/08 01:45:09;;;;;;;4.20;0.85;;;13.70;99.90;;;;;;5031251;28;20034;-72
2022/07/08 01:47:35;;;;;;;5.18;0.40;;;13.70;99.90;;;;;;5030575;28;20057;-72
2022/07/08 01:50:00;;;;;;;7.57;0.73;;;13.70;99.90;;;;;;5029717;28;20513;-72
2022/07/08 01:52:26;;;;;;;5.93;1.33;;;13.70;99.90;;;;;;5029475;28;20037;-72
2022/07/08 01:54:52;;;;;;;5.28;0.80;;;13.60;99.90;;;;;;5030875;28;20481;-72
2022/07/08 01:57:18;;;;;;;9.10;1.52;;;13.60;99.90;;;;;;5029282;28;20029;-72
2022/07/08 01:59:49;;;;;;;7.40;1.23;;;13.50;99.90;;;;;;5030855;28;20040;-72
2022/07/08 02:02:17;;;;;;;5.35;1.15;;;13.50;99.90;;;;;;5030873;28;20117;-72
2022/07/08 02:04:43;;;;;;;4.68;0.60;;;13.50;99.90;;;;;;5029207;28;20067;-71
2022/07/08 02:07:09;;;;;;;4.32;0.55;;;13.50;99.90;;;;;;5030610;28;20029;-72
2022/07/08 02:09:35;;;;;;;2.78;0.90;;;13.40;99.90;;;;;;5028930;28;20026;-74
2022/07/08 02:12:19;;;;;;;1.83;0.70;;;13.40;99.90;;;;;;5030617;28;20038;-72
2022/07/08 02:15:01;;;;;;;3.95;0.57;;;13.40;99.90;;;;;;5029953;28;20053;-72
2022/07/08 02:17:29;;;;;;;5.03;0.70;;;13.30;99.90;;;;;;5026054;28;20037;-72
2022/07/08 02:19:55;;;;;;;10.48;1.15;;;13.30;99.90;;;;;;5028846;28;20026;-72
2022/07/08 02:22:21;;;;;;;7.93;1.25;;;13.30;99.90;;;;;;5030835;28;20037;-73
2022/07/08 02:24:49;;;;;;;7.45;1.10;;;13.30;99.90;;;;;;5033530;28;20034;-72
2022/07/08 02:27:15;;;;;;;4.82;0.80;;;13.20;99.90;;;;;;5039147;28;20022;-72
2022/07/08 02:29:41;;;;;;;4.53;1.10;;;13.20;99.90;;;;;;5040333;28;20040;-72
2022/07/08 02:32:07;;;;;;;4.60;0.80;;;13.20;99.90;;;;;;5028080;28;20037;-72
2022/07/08 02:34:33;;;;;;;6.25;0.93;;;13.20;99.90;;;;;;5024686;28;20494;-73
2022/07/08 02:36:58;;;;;;;5.35;0.60;;;13.10;99.90;;;;;;5030735;28;20045;-71
2022/07/08 02:39:24;;;;;;;3.80;0.65;;;13.10;99.90;;;;;;5030373;28;20486;-72
2022/07/08 02:41:50;;;;;;;9.43;1.05;;;13.10;99.90;;;;;;5030320;28;20037;-73
2022/07/08 02:44:16;;;;;;;9.10;1.65;;;13.00;99.90;;;;;;5030420;28;20034;-71
2022/07/08 02:46:41;;;;;;;3.92;0.93;;;13.00;99.90;;;;;;5035197;28;20144;-73
2022/07/08 02:49:11;;;;;;;2.20;0.65;;;13.00;99.90;;;;;;5035400;28;20061;-72
2022/07/08 02:51:37;;;;;;;3.13;0.90;;;13.00;99.90;;;;;;5040999;28;20037;-73
2022/07/08 02:54:04;;;;;;;5.75;1.38;;;12.90;99.90;;;;;;5037465;28;20502;-72
2022/07/08 02:56:33;;;;;;;11.25;0.90;;;12.90;99.90;;;;;;5030442;28;20065;-72
2022/07/08 02:59:00;;;;;;;6.72;0.70;;;12.90;99.90;;;;;;5029896;28;20030;-71
2022/07/08 03:01:25;;;;;;;7.55;0.80;;;12.90;99.90;;;;;;5029693;28;20091;-72
2022/07/08 03:03:51;;;;;;;3.85;0.85;;;12.80;99.90;;;;;;5028836;28;20033;-73
2022/07/08 03:06:17;;;;;;;3.75;0.50;;;12.80;99.90;;;;;;5029653;28;20033;-72
2022/07/08 03:08:42;;;;;;;3.97;0.80;;;12.80;99.90;;;;;;5028692;28;20037;-72
2022/07/08 03:11:08;;;;;;;2.15;0.63;;;12.80;99.90;;;;;;5027941;28;20040;-72
2022/07/08 03:13:37;;;;;;;8.55;1.17;;;12.80;99.90;;;;;;5029386;28;20042;-72
2022/07/08 03:16:04;;;;;;;7.45;1.08;;;12.80;99.90;;;;;;5029153;28;20044;-72
2022/07/08 03:18:31;;;;;;;9.07;1.13;;;12.80;99.90;;;;;;5029152;28;20048;-72
2022/07/08 03:20:57;;;;;;;10.43;1.05;;;12.70;99.90;;;;;;5029317;28;20522;-72
2022/07/08 03:23:22;;;;;;;3.45;0.98;;;12.80;99.90;;;;;;5028846;28;20125;-72
2022/07/08 03:25:48;;;;;;;6.60;0.47;;;12.70;99.90;;;;;;5030283;28;20033;-72
2022/07/08 03:28:14;;;;;;;3.63;0.60;;;12.70;99.90;;;;;;5029002;28;20155;-72
2022/07/08 03:30:40;;;;;;;7.75;1.20;;;12.70;99.90;;;;;;5026924;28;20095;-72
2022/07/08 03:33:05;;;;;;;5.53;1.35;;;12.70;99.90;;;;;;5027122;28;20413;-72
2022/07/08 03:35:31;;;;;;;9.13;1.05;;;12.70;99.90;;;;;;5029363;28;20037;-71
2022/07/08 03:37:56;;;;;;;4.40;0.70;;;12.70;99.90;;;;;;5029041;28;20057;-71
2022/07/08 03:43:06;;;;;;;2.78;0.77;;;12.60;99.90;;;;;;5030374;28;20405;-72
2022/07/08 03:45:32;;;;;;;5.07;0.73;;;12.60;99.90;;;;;;5028775;28;20052;-72
2022/07/08 03:47:57;;;;;;;7.25;0.80;;;12.60;99.90;;;;;;5031335;28;20036;-71
2022/07/08 03:50:23;;;;;;;3.33;0.70;;;12.60;99.90;;;;;;5028786;28;20034;-70
2022/07/08 03:52:48;;;;;;;6.68;0.80;;;12.60;99.90;;;;;;5028761;28;20150;-71
2022/07/08 03:55:14;;;;;;;7.40;0.90;;;12.60;99.90;;;;;;5032552;28;20041;-72
2022/07/08 03:57:40;;;;;;;5.10;0.90;;;12.60;99.90;;;;;;5034630;28;20061;-72
2022/07/08 04:00:07;;;;;;;9.57;1.33;;;12.60;99.90;;;;;;5037107;28;20471;-69
2022/07/08 04:02:34;;;;;;;5.45;1.55;;;12.60;99.90;;;;;;5037909;28;20026;-72
2022/07/08 04:04:59;;;;;;;8.13;1.20;;;12.60;99.90;;;;;;5040654;28;20037;-70
2022/07/08 04:07:25;;;;;;;5.20;1.20;;;12.60;99.90;;;;;;5039138;28;20072;-72
2022/07/08 04:09:51;;;;;;;6.78;1.20;;;12.60;99.90;;;;;;5032316;28;20033;-72
2022/07/08 04:12:16;;;;;;;6.43;1.98;;;12.60;99.90;;;;;;5031918;28;20091;-70
2022/07/08 04:14:42;;;;;;;5.38;1.20;;;12.60;99.90;;;;;;5024699;28;20124;-71
2022/07/08 04:17:07;;;;;;;5.15;1.40;;;12.60;99.90;;;;;;5026589;28;20037;-72
2022/07/08 04:19:33;;;;;;;3.47;1.20;;;12.60;99.90;;;;;;5028608;28;20029;-72
2022/07/08 04:21:58;;;;;;;6.95;1.30;;;12.60;99.90;;;;;;5028299;28;20088;-71
2022/07/08 04:24:24;;;;;;;6.70;1.17;;;12.60;99.90;;;;;;5028028;28;20501;-72
2022/07/08 04:26:50;;;;;;;10.73;1.75;;;12.60;99.90;;;;;;5029640;28;20029;-72
2022/07/08 04:29:15;;;;;;;6.45;1.20;;;12.60;99.90;;;;;;5028351;28;20049;-71
2022/07/08 04:31:41;;;;;;;5.90;1.10;;;12.70;99.90;;;;;;5022480;28;20052;-72
2022/07/08 04:34:06;;;;;;;12.05;2.72;;;12.70;99.90;;;;;;5028500;28;20056;-72
2022/07/08 04:36:32;;;;;;;6.20;1.25;;;12.70;99.90;;;;;;5028405;28;20044;-70
2022/07/08 04:38:57;;;;;;;5.40;1.60;;;12.70;99.90;;;;;;5028424;28;20030;-72
2022/07/08 04:41:23;;;;;;;9.13;1.70;;;12.70;99.90;;;;;;5028120;28;20060;-71
2022/07/08 04:43:48;;;;;;;4.80;1.77;;;12.80;99.90;;;;;;5028914;28;20044;-71
2022/07/08 04:46:14;;;;;;;2.45;1.10;;;12.80;99.90;;;;;;5031876;28;20153;-71
2022/07/08 04:48:40;;;;;;;4.57;1.77;;;12.80;99.90;;;;;;5029088;28;20577;-72
2022/07/08 04:51:06;;;;;;;6.22;2.17;;;12.80;99.90;;;;;;5032343;28;20052;-71
2022/07/08 04:53:32;;;;;;;7.65;1.77;;;12.80;99.90;;;;;;5029809;28;20083;-72
2022/07/08 04:55:57;;;;;;;3.42;1.40;;;12.90;99.90;;;;;;5032455;28;20464;-72
2022/07/08 04:58:23;;;;;;;4.30;1.40;;;12.90;99.90;;;;;;5030780;28;20044;-72
2022/07/08 05:00:48;;;;;;;3.47;1.40;;;12.90;99.90;;;;;;5032297;28;20541;-72
2022/07/08 05:03:14;;;;;;;3.28;1.30;;;13.00;99.90;;;;;;5032841;28;20086;-72
2022/07/08 05:05:40;;;;;;;7.30;1.65;;;13.10;99.90;;;;;;5033668;28;20057;-72
2022/07/08 05:08:05;;;;;;;4.55;1.40;;;13.10;99.90;;;;;;5030930;28;20094;-71
2022/07/08 05:10:31;;;;;;;7.25;1.50;;;13.20;99.90;;;;;;5030996;28;20029;-71
2022/07/08 05:12:57;;;;;;;3.97;1.13;;;13.30;99.90;;;;;;5035453;28;20029;-72
2022/07/08 05:15:23;;;;;;;6.20;1.15;;;13.40;99.90;;;;;;5041019;28;20048;-72
2022/07/08 05:17:49;;;;;;;7.30;1.45;;;13.60;99.90;;;;;;5040378;28;20049;-71
2022/07/08 05:20:16;;;;;;;4.03;1.20;;;13.70;99.90;;;;;;5036982;28;20371;-71
2022/07/08 05:22:42;;;;;;;5.45;1.40;;;13.90;99.90;;;;;;5030860;28;20034;-72
2022/07/08 05:25:08;;;;;;;5.60;0.98;;;14.10;99.90;;;;;;5031591;28;20025;-72
2022/07/08 05:27:35;;;;;;;6.10;1.40;;;14.30;99.90;;;;;;5043030;28;20064;-71
2022/07/08 05:30:02;;;;;;;15.63;1.23;;;14.40;99.90;;;;;;5040881;28;20061;-71
2022/07/08 05:32:27;;;;;;;9.95;1.88;;;14.50;99.90;;;;;;5039246;28;20029;-72
2022/07/08 05:34:53;;;;;;;6.25;1.20;;;14.70;99.90;;;;;;5030937;28;20038;-72
2022/07/08 05:37:19;;;;;;;3.58;0.88;;;14.80;99.90;;;;;;5030709;28;20028;-71
2022/07/08 05:39:44;;;;;;;4.45;0.80;;;14.80;99.90;;;;;;5031586;28;20037;-72
2022/07/08 05:42:11;;;;;;;4.38;1.05;;;15.00;99.90;;;;;;5031581;28;20049;-71
2022/07/08 05:44:37;;;;;;;3.05;1.15;;;15.00;99.90;;;;;;5027455;28;20022;-73
2022/07/08 05:47:04;;;;;;;6.38;1.08;;;15.20;99.90;;;;;;5031961;28;20814;-72
2022/07/08 05:49:30;;;;;;;4.68;0.80;;;15.30;99.90;;;;;;5031485;28;20036;-72
2022/07/08 05:51:55;;;;;;;10.07;1.15;;;15.40;99.90;;;;;;5022124;28;20037;-72
2022/07/08 05:54:21;;;;;;;6.53;1.08;;;15.50;99.90;;;;;;5028680;28;20452;-72
2022/07/08 05:56:47;;;;;;;8.48;1.02;;;15.60;99.90;;;;;;5029390;28;20038;-71
2022/07/08 05:59:12;;;;;;;4.82;1.05;;;15.60;99.90;;;;;;5029242;28;20489;-71
2022/07/08 06:01:38;;;;;;;5.28;1.25;;;15.70;99.90;;;;;;5031323;28;20486;-72
2022/07/08 06:04:04;;;;;;;6.13;0.55;;;15.80;99.90;;;;;;5028597;28;20396;-71
2022/07/08 06:06:29;;;;;;;5.03;0.90;;;15.80;99.90;;;;;;5030579;28;20048;-72
2022/07/08 06:08:55;;;;;;;3.67;1.27;;;15.90;99.90;;;;;;5030907;28;20120;-72
2022/07/08 06:11:20;;;;;;;9.02;0.73;;;16.00;99.90;;;;;;5029357;28;20052;-71
2022/07/08 06:13:46;;;;;;;5.55;1.38;;;16.10;99.90;;;;;;5028749;28;20116;-72
2022/07/08 06:16:12;;;;;;;5.47;0.80;;;16.10;99.90;;;;;;5029147;28;20033;-72
2022/07/08 06:18:37;;;;;;;9.00;1.17;;;16.20;99.90;;;;;;5030871;28;20040;-71
2022/07/08 06:21:03;;;;;;;4.75;1.08;;;16.30;99.90;;;;;;5030341;28;20435;-71
2022/07/08 06:23:29;;;;;;;2.42;0.98;;;16.30;99.90;;;;;;5029968;28;20104;-72
2022/07/08 06:25:54;;;;;;;4.60;0.98;;;16.40;99.90;;;;;;5031005;28;20060;-72
2022/07/08 06:28:20;;;;;;;3.83;0.60;;;16.50;99.90;;;;;;5045704;28;20030;-71
2022/07/08 06:30:46;;;;;;;5.32;1.30;;;16.60;99.90;;;;;;5045292;28;20097;-71
2022/07/08 06:33:11;;;;;;;9.13;1.15;;;16.70;99.90;;;;;;5037989;28;20445;-73
2022/07/08 06:35:37;;;;;;;5.00;1.27;;;16.80;99.90;;;;;;5031658;28;20120;-71
2022/07/08 06:38:02;;;;;;;6.47;0.85;;;16.90;99.90;;;;;;5031221;28;20041;-71
2022/07/08 06:40:28;;;;;;;5.35;0.82;;;17.00;99.90;;;;;;5027096;28;20140;-72
2022/07/08 06:42:54;;;;;;;4.80;0.70;;;17.20;99.90;;;;;;5035573;28;20044;-70
2022/07/08 06:45:20;;;;;;;4.60;1.35;;;17.30;99.90;;;;;;5029637;28;20029;-72
2022/07/08 06:47:46;;;;;;;13.50;1.42;;;17.50;99.90;;;;;;5031195;28;20034;-73
2022/07/08 06:50:12;;;;;;;5.43;1.00;;;17.70;99.90;;;;;;5029481;28;20034;-73
2022/07/08 06:52:37;;;;;;;5.60;0.75;;;17.90;99.90;;;;;;5029039;28;20113;-72
2022/07/08 06:55:04;;;;;;;7.28;1.52;;;18.10;99.90;;;;;;5025988;28;20620;-72
2022/07/08 06:57:30;;;;;;;4.55;1.00;;;18.20;99.90;;;;;;5031204;28;20642;-72
2022/07/08 06:59:56;;;;;;;9.35;1.40;;;18.40;99.90;;;;;;5030049;28;20037;-73
2022/07/08 07:02:21;;;;;;;7.93;0.95;;;18.50;99.90;;;;;;5021634;28;20036;-72
2022/07/08 07:04:47;;;;;;;10.93;1.27;;;18.60;99.90;;;;;;5026407;28;20038;-73
2022/07/08 07:07:13;;;;;;;6.35;1.23;;;18.70;99.90;;;;;;5023408;28;20037;-71
2022/07/08 07:09:38;;;;;;;7.90;1.05;;;19.00;99.90;;;;;;5024823;28;20029;-72
2022/07/08 07:12:06;;;;;;;7.65;0.93;;;19.20;99.90;;;;;;5024112;28;20025;-71
2022/07/08 07:14:32;;;;;;;5.20;1.02;;;19.40;99.90;;;;;;5023319;28;20033;-73
2022/07/08 07:16:57;;;;;;;3.47;0.90;;;19.80;99.90;;;;;;5025351;28;20041;-73
2022/07/08 07:19:23;;;;;;;6.93;1.15;;;20.20;99.90;;;;;;5024284;28;20381;-72
2022/07/08 07:21:48;;;;;;;6.00;0.80;;;20.50;99.90;;;;;;5025782;28;20073;-72
2022/07/08 07:24:15;;;;;;;4.50;1.20;;;20.70;99.90;;;;;;5023573;28;20500;-72
2022/07/08 07:26:41;;;;;;;5.28;1.10;;;20.70;99.90;;;;;;5027532;28;20033;-73
2022/07/08 07:29:07;;;;;;;5.05;0.63;;;20.90;99.90;;;;;;5025898;28;20034;-73
2022/07/08 07:31:34;;;;;;;4.47;1.00;;;20.80;99.90;;;;;;5025363;28;20118;-70
2022/07/08 07:34:00;;;;;;;8.00;1.42;;;21.00;99.90;;;;;;5023979;28;20036;-71
2022/07/08 07:36:26;;;;;;;7.55;1.25;;;20.90;99.90;;;;;;5025679;28;20049;-70
2022/07/08 07:38:51;;;;;;;7.70;1.33;;;21.20;99.90;;;;;;5024733;28;20034;-69
2022/07/08 07:41:17;;;;;;;4.80;0.82;;;21.40;99.90;;;;;;5026823;28;20041;-71
2022/07/08 07:43:42;;;;;;;3.58;0.70;;;21.90;99.90;;;;;;5031785;28;20086;-73
2022/07/08 07:46:08;;;;;;;5.38;0.50;;;22.80;99.90;;;;;;5031100;28;20103;-71
2022/07/08 07:48:34;;;;;;;3.15;0.73;;;23.20;99.90;;;;;;5031215;28;20032;-73
2022/07/08 07:50:59;;;;;;;2.35;0.57;;;23.90;99.90;;;;;;5022662;28;20040;-73
2022/07/08 07:53:26;;;;;;;8.80;1.95;;;24.10;99.90;;;;;;5027185;28;20046;-72
2022/07/08 07:55:52;;;;;;;5.10;0.70;;;23.80;99.90;;;;;;5026216;28;20045;-72
2022/07/08 07:58:17;;;;;;;3.38;0.70;;;24.30;99.90;;;;;;5024480;28;20033;-73
2022/07/08 08:00:43;;;;;;;6.47;0.90;;;24.20;99.50;;;;;;5027506;28;20231;-72
2022/07/08 08:03:08;;;;;;;5.20;0.80;;;24.00;99.90;;;;;;5024313;28;20164;-73
2022/07/08 08:05:34;;;;;;;6.00;1.23;;;24.10;99.90;;;;;;5027745;28;20033;-73
2022/07/08 08:08:00;;;;;;;2.83;0.68;;;23.90;99.60;;;;;;5025243;28;20107;-73
2022/07/08 08:10:26;;;;;;;5.15;1.33;;;24.20;99.90;;;;;;5023447;28;20037;-72
2022/07/08 08:12:51;;;;;;;5.18;0.90;;;24.30;99.80;;;;;;5025061;28;20103;-71
2022/07/08 08:15:17;;;;;;;3.85;0.95;;;24.60;98.90;;;;;;5025413;28;20048;-74
2022/07/08 08:17:43;;;;;;;6.97;1.38;;;24.50;99.00;;;;;;5027030;28;20501;-73
2022/07/08 08:20:11;;;;;;;4.60;0.68;;;24.50;98.80;;;;;;5026980;28;20117;-73
2022/07/08 08:22:36;;;;;;;4.13;0.82;;;24.10;98.40;;;;;;5027962;28;20033;-72
2022/07/08 08:25:02;;;;;;;6.53;1.23;;;24.00;98.70;;;;;;5029670;28;20025;-73
2022/07/08 08:27:28;;;;;;;4.05;0.85;;;23.90;98.80;;;;;;5027031;28;20025;-73
2022/07/08 08:29:54;;;;;;;6.68;0.98;;;23.70;99.30;;;;;;5028441;28;20034;-73
2022/07/08 08:32:20;;;;;;;9.35;1.20;;;23.60;99.30;;;;;;5028309;28;20033;-73
2022/07/08 08:34:46;;;;;;;8.07;1.27;;;23.50;99.90;;;;;;5026419;28;20077;-73
2022/07/08 08:37:12;;;;;;;4.43;0.85;;;23.40;99.90;;;;;;5028294;28;20049;-74
2022/07/08 08:39:39;;;;;;;6.55;1.05;;;23.20;99.90;;;;;;5028033;28;20037;-72
2022/07/08 08:42:06;;;;;;;5.38;1.45;;;23.20;99.90;;;;;;5027488;28;20026;-72
2022/07/08 08:44:32;;;;;;;6.35;0.98;;;23.10;99.90;;;;;;5028177;28;20037;-73
2022/07/08 08:46:58;;;;;;;2.38;0.68;;;23.10;99.70;;;;;;5029328;28;20034;-73
2022/07/08 08:49:25;;;;;;;4.28;1.00;;;23.00;99.90;;;;;;5033498;28;20486;-71
2022/07/08 08:51:51;;;;;;;8.55;1.65;;;23.00;99.90;;;;;;5028688;28;20103;-70
2022/07/08 08:54:21;;;;;;;5.53;1.02;;;23.00;99.90;;;;;;5027493;28;20037;-70
2022/07/08 08:56:47;;;;;;;7.10;0.65;;;23.00;99.90;;;;;;5027452;28;20042;-70
2022/07/08 08:59:15;;;;;;;1.33;0.43;;;23.00;99.90;;;;;;5026859;28;20025;-69
2022/07/08 09:01:41;;;;;;;3.40;0.82;;;23.00;99.90;;;;;;5029616;28;20076;-68
2022/07/08 09:04:13;;;;;;;1.30;0.32;;;23.00;99.90;;;;;;5026376;28;20025;-68
2022/07/08 09:06:39;;;;;;;4.30;0.52;;;22.90;99.90;;;;;;5028377;28;20501;-70
2022/07/08 09:09:05;;;;;;;2.55;0.63;;;22.90;99.60;;;;;;5028265;28;20033;-70
2022/07/08 09:11:33;;;;;;;3.47;1.20;;;22.90;99.90;;;;;;5026457;28;20128;-69
2022/07/08 09:14:20;;;;;;;2.95;0.75;;;22.80;99.70;;;;;;5024878;28;20128;-70
2022/07/08 09:17:17;;;;;;;2.72;0.40;;;22.80;99.70;;;;;;5025936;28;20140;-68
2022/07/08 09:19:47;;;;;;;1.65;0.50;;;22.70;99.80;;;;;;5026151;28;20133;-70
2022/07/08 09:22:13;;;;;;;3.35;0.50;;;22.70;99.90;;;;;;5028534;28;20112;-70
2022/07/08 09:24:39;;;;;;;5.03;0.63;;;22.80;99.60;;;;;;5026175;28;20212;-70
2022/07/08 09:27:07;;;;;;;1.88;0.20;;;22.90;99.10;;;;;;5029272;28;20453;-70
2022/07/08 09:29:33;;;;;;;5.30;0.45;;;23.10;99.70;;;;;;5029462;28;20032;-69
2022/07/08 09:32:12;;;;;;;5.30;0.80;;;23.00;98.90;;;;;;5032246;28;20040;-71
2022/07/08 09:34:39;;;;;;;4.65;0.90;;;23.10;99.70;;;;;;5028518;28;20037;-68
2022/07/08 09:37:15;;;;;;;4.03;0.73;;;23.20;99.10;;;;;;5029544;28;20083;-72
2022/07/08 09:39:42;;;;;;;3.42;0.63;;;23.20;98.00;;;;;;5026006;28;20038;-71
2022/07/08 09:42:09;;;;;;;4.97;0.90;;;23.10;98.30;;;;;;5030896;28;20060;-70
2022/07/08 09:44:35;;;;;;;3.08;0.50;;;23.30;98.60;;;;;;5029046;28;20043;-72
2022/07/08 09:47:09;;;;;;;1.52;0.45;;;23.30;98.50;;;;;;5030077;28;20025;-72
2022/07/08 09:49:34;;;;;;;2.75;0.60;;;23.50;99.40;;;;;;5033099;28;20044;-72
2022/07/08 09:52:00;;;;;;;5.75;0.98;;;23.50;98.80;;;;;;5030950;28;20029;-72
2022/07/08 09:54:28;;;;;;;4.15;0.68;;;23.50;99.30;;;;;;5030810;28;20033;-70
2022/07/08 09:57:04;;;;;;;4.43;0.88;;;23.60;98.60;;;;;;5034731;28;20445;-70
2022/07/08 09:59:31;;;;;;;3.95;0.90;;;23.60;98.90;;;;;;5027905;28;20045;-71
2022/07/08 10:01:58;;;;;;;1.67;0.60;;;23.60;99.30;;;;;;5029579;28;20033;-71
2022/07/08 10:04:25;;;;;;;3.65;0.70;;;23.60;98.30;;;;;;5030535;28;20033;-70
2022/07/08 10:06:51;;;;;;;12.40;6.55;;;23.70;99.10;;;;;;5031039;28;20026;-72
2022/07/08 10:09:18;;;;;;;3.75;0.60;;;23.70;98.90;;;;;;5029955;28;20037;-72
2022/07/08 10:11:44;;;;;;;5.05;0.75;;;23.80;99.30;;;;;;5029973;28;20037;-72
2022/07/08 10:14:10;;;;;;;3.60;1.02;;;24.00;99.70;;;;;;5030266;28;20095;-72
2022/07/08 10:16:38;;;;;;;3.63;0.60;;;24.10;99.20;;;;;;5030561;28;20041;-72
2022/07/08 10:19:07;;;;;;;2.95;0.32;;;24.20;97.30;;;;;;5028930;28;20100;-72
2022/07/08 10:21:36;;;;;;;3.53;0.60;;;24.10;97.40;;;;;;5028644;28;20025;-69
2022/07/08 10:24:06;;;;;;;1.63;0.28;;;24.20;98.00;;;;;;5029681;28;20042;-71
2022/07/08 10:26:42;;;;;;;1.33;0.32;;;24.20;97.30;;;;;;5032498;28;20065;-69
2022/07/08 10:29:11;;;;;;;2.85;0.68;;;24.20;98.00;;;;;;5031379;28;20037;-68
2022/07/08 10:31:45;;;;;;;5.03;1.15;;;24.20;97.90;;;;;;5032763;28;20210;-69
2022/07/08 10:34:13;;;;;;;2.03;0.40;;;24.10;97.00;;;;;;5029189;28;20037;-72
2022/07/08 10:36:48;;;;;;;1.98;0.68;;;24.10;96.60;;;;;;5030126;28;20045;-70
2022/07/08 10:39:14;;;;;;;5.78;0.65;;;24.10;96.70;;;;;;5029888;28;20573;-71
2022/07/08 10:41:40;;;;;;;5.43;1.05;;;24.00;97.10;;;;;;5030671;28;20068;-70
2022/07/08 10:44:08;;;;;;;6.00;0.50;;;24.10;97.60;;;;;;5029659;28;20104;-72
2022/07/08 10:46:33;;;;;;;2.20;0.65;;;23.90;97.20;;;;;;5030207;28;20545;-72
2022/07/08 10:49:01;;;;;;;3.33;0.75;;;23.90;97.80;;;;;;5032208;28;20188;-72
2022/07/08 10:51:28;;;;;;;3.40;0.45;;;24.00;97.50;;;;;;5028165;28;20040;-71
2022/07/08 10:53:55;;;;;;;3.13;0.63;;;24.10;98.30;;;;;;5029607;28;20034;-72
2022/07/08 10:56:48;;;;;;;4.60;0.60;;;24.20;97.30;;;;;;5028136;28;20663;-72
2022/07/08 10:59:35;;;;;;;5.32;0.43;;;24.30;98.00;;;;;;5029025;28;20067;-72
2022/07/08 11:02:10;;;;;;;4.32;0.45;;;24.50;96.30;;;;;;5025443;28;20029;-72
2022/07/08 11:04:37;;;;;;;5.88;0.40;;;24.50;95.30;;;;;;5029393;28;20724;-72
2022/07/08 11:07:18;;;;;;;1.20;0.43;;;24.40;96.00;;;;;;5029530;28;20053;-72
2022/07/08 11:09:51;;;;;;;0.75;0.22;;;24.40;95.40;;;;;;5029111;28;20128;-72
2022/07/08 11:12:21;;;;;;;5.45;0.80;;;24.30;95.10;;;;;;5027742;28;20406;-72
2022/07/08 11:14:48;;;;;;;1.58;0.22;;;24.30;95.50;;;;;;5029071;28;20116;-71
2022/07/08 11:17:18;;;;;;;2.75;0.60;;;24.30;94.90;;;;;;5028910;28;20029;-71
2022/07/08 11:19:45;;;;;;;2.40;0.40;;;24.30;95.30;;;;;;5028845;28;20041;-72
2022/07/08 11:22:11;;;;;;;0.93;0.28;;;24.40;96.00;;;;;;5029125;28;20030;-72
2022/07/08 11:24:42;;;;;;;3.97;0.88;;;24.50;95.20;;;;;;5029334;28;20516;-72
2022/07/08 11:27:07;;;;;;;2.50;0.57;;;24.50;94.90;;;;;;5026693;28;20577;-70
2022/07/08 11:29:34;;;;;;;2.88;0.52;;;24.60;95.30;;;;;;5028753;28;20116;-69
2022/07/08 11:32:02;;;;;;;1.48;0.30;;;24.60;95.40;;;;;;5028801;28;20493;-70
2022/07/08 11:34:28;;;;;;;2.42;0.40;;;24.60;94.00;;;;;;5028637;28;20041;-69
2022/07/08 11:37:01;;;;;;;1.08;0.38;;;24.60;94.80;;;;;;5028844;28;20120;-70
2022/07/08 11:39:27;;;;;;;2.33;0.30;;;24.60;94.80;;;;;;5028930;28;20489;-69
2022/07/08 11:41:55;;;;;;;3.92;0.85;;;24.50;94.90;;;;;;5027507;28;20140;-69
2022/07/08 11:44:21;;;;;;;2.40;0.30;;;24.50;94.70;;;;;;5028734;28;20030;-69
2022/07/08 11:46:57;;;;;;;1.13;0.30;;;24.60;95.00;;;;;;5024408;28;20033;-69
2022/07/08 11:49:24;;;;;;;3.67;0.45;;;24.60;94.90;;;;;;5027566;28;20060;-69
2022/07/08 11:51:52;;;;;;;1.63;0.52;;;24.60;94.50;;;;;;5026829;28;20390;-70
2022/07/08 11:54:26;;;;;;;7.18;0.73;;;24.50;94.60;;;;;;5024466;28;20109;-69
2022/07/08 11:56:59;;;;;;;4.50;0.38;;;24.50;94.60;;;;;;5023976;28;20091;-70
2022/07/08 11:59:30;;;;;;;3.00;0.30;;;24.40;94.40;;;;;;5027023;28;20136;-68
2022/07/08 12:01:58;;;;;;;2.53;0.45;;;24.40;94.70;;;;;;5028315;28;20033;-69
2022/07/08 12:04:25;;;;;;;2.13;0.20;;;24.50;94.60;;;;;;5026783;28;20064;-70
2022/07/08 12:06:52;;;;;;;1.85;0.52;;;24.50;94.10;;;;;;5027653;28;20037;-70
2022/07/08 12:09:20;;;;;;;1.50;0.40;;;24.50;94.20;;;;;;5025417;28;20033;-68
2022/07/08 12:11:48;;;;;;;3.97;1.05;;;24.50;93.80;;;;;;5026353;28;20041;-70
2022/07/08 12:14:13;;;;;;;2.15;0.40;;;24.50;93.60;;;;;;5027367;28;20056;-70
2022/07/08 12:16:50;;;;;;;2.13;0.50;;;24.50;94.20;;;;;;5026511;28;20045;-70
2022/07/08 12:19:30;;;;;;;2.72;0.22;;;24.50;93.70;;;;;;5024978;28;20041;-70
2022/07/08 12:21:58;;;;;;;3.08;0.65;;;24.40;94.20;;;;;;5028270;28;20108;-69
2022/07/08 12:24:35;;;;;;;1.10;0.30;;;24.40;94.10;;;;;;5025543;28;20045;-68
2022/07/08 12:27:16;;;;;;;2.47;0.43;;;24.50;95.30;;;;;;5028638;28;20032;-70
2022/07/08 12:29:42;;;;;;;1.40;0.38;;;24.60;94.80;;;;;;5026951;28;20065;-68
2022/07/08 12:32:11;;;;;;;3.78;0.60;;;24.80;94.80;;;;;;5028880;28;20076;-69
2022/07/08 12:34:48;;;;;;;1.80;0.43;;;24.80;93.90;;;;;;5028617;28;20055;-70
2022/07/08 12:37:15;;;;;;;2.25;0.60;;;24.80;93.80;;;;;;5023606;28;20064;-70
2022/07/08 12:39:41;;;;;;;3.28;0.50;;;24.80;93.60;;;;;;5028594;28;20037;-70
2022/07/08 12:42:07;;;;;;;1.20;0.22;;;24.80;93.80;;;;;;5028059;28;20091;-70
2022/07/08 12:44:33;;;;;;;0.98;0.38;;;24.60;93.80;;;;;;5024353;28;20033;-70
2022/07/08 12:47:00;;;;;;;1.35;0.32;;;24.70;94.00;;;;;;5023767;28;20128;-71